Mesquite, New Mexico
Current Conditions -  °F | °C
As of 10:15 AM on Thursday 30 Oct 2014 (Local Time) from KLRU Reporting Station
Clear Clear  
Wind Chill: 67°   Ceiling: Unl
Heat Index: 67°   Visibility: 10mi
Dew Point: 32°   Wind: 7mph
Humidity: 27%   Direction: 320°NW
Pressure: 30.28"   Gusts: NA
Location:  32.17°N, 106.7°W
Report Text: KLRU 301615Z AUTO 32006KT 10SM CLR 20/00 A3028 RMK AO2 T01960000 PWINO
Loading
Personal Weather Stations






























Interactive Weather Map
Tropical Storm Tracking
New forecast layout! Learn more

10-Day Weather Forecast

Advertisements
Track Severe Weather on mobile